sensor_id;sensor_type;location;lat;lon;timestamp;P1;durP1;ratioP1;P2;durP2;ratioP2
12798;SDS011;19250;42.646;26.980;2022-08-21T00:01:16;13.18;;;11.90;;
12798;SDS011;19250;42.646;26.980;2022-08-21T00:03:45;13.85;;;12.43;;
12798;SDS011;19250;42.646;26.980;2022-08-21T00:06:13;13.40;;;12.20;;
12798;SDS011;19250;42.646;26.980;2022-08-21T00:08:42;12.50;;;11.40;;
12798;SDS011;19250;42.646;26.980;2022-08-21T00:11:09;13.63;;;12.23;;
12798;SDS011;19250;42.646;26.980;2022-08-21T00:13:36;15.38;;;13.85;;
12798;SDS011;19250;42.646;26.980;2022-08-21T00:16:04;14.00;;;12.70;;
12798;SDS011;19250;42.646;26.980;2022-08-21T00:18:32;13.15;;;11.95;;
12798;SDS011;19250;42.646;26.980;2022-08-21T00:20:59;13.38;;;12.18;;
12798;SDS011;19250;42.646;26.980;2022-08-21T00:23:27;13.43;;;12.23;;
12798;SDS011;19250;42.646;26.980;2022-08-21T00:25:55;14.55;;;12.70;;
12798;SDS011;19250;42.646;26.980;2022-08-21T00:28:23;15.23;;;12.70;;
12798;SDS011;19250;42.646;26.980;2022-08-21T00:30:50;13.40;;;12.30;;
12798;SDS011;19250;42.646;26.980;2022-08-21T00:33:17;13.20;;;12.00;;
12798;SDS011;19250;42.646;26.980;2022-08-21T00:35:45;13.15;;;12.05;;
12798;SDS011;19250;42.646;26.980;2022-08-21T00:38:12;12.60;;;11.43;;
12798;SDS011;19250;42.646;26.980;2022-08-21T00:40:41;13.40;;;12.10;;
12798;SDS011;19250;42.646;26.980;2022-08-21T00:43:14;13.73;;;12.35;;
12798;SDS011;19250;42.646;26.980;2022-08-21T00:45:45;13.27;;;11.93;;
12798;SDS011;19250;42.646;26.980;2022-08-21T00:48:13;13.55;;;12.25;;
12798;SDS011;19250;42.646;26.980;2022-08-21T00:50:42;13.40;;;12.20;;
12798;SDS011;19250;42.646;26.980;2022-08-21T00:53:12;13.35;;;12.13;;
12798;SDS011;19250;42.646;26.980;2022-08-21T00:55:41;13.65;;;12.35;;
12798;SDS011;19250;42.646;26.980;2022-08-21T00:58:09;13.03;;;11.93;;
12798;SDS011;19250;42.646;26.980;2022-08-21T01:00:42;13.52;;;12.20;;
12798;SDS011;19250;42.646;26.980;2022-08-21T01:03:13;13.23;;;12.00;;
12798;SDS011;19250;42.646;26.980;2022-08-21T01:05:43;12.88;;;11.68;;
12798;SDS011;19250;42.646;26.980;2022-08-21T01:08:12;13.05;;;12.00;;
12798;SDS011;19250;42.646;26.980;2022-08-21T01:10:42;12.73;;;11.63;;
12798;SDS011;19250;42.646;26.980;2022-08-21T01:13:10;12.88;;;11.65;;
12798;SDS011;19250;42.646;26.980;2022-08-21T01:15:39;12.75;;;11.48;;
12798;SDS011;19250;42.646;26.980;2022-08-21T01:18:13;13.03;;;11.93;;
12798;SDS011;19250;42.646;26.980;2022-08-21T01:20:42;12.40;;;11.20;;
12798;SDS011;19250;42.646;26.980;2022-08-21T01:23:14;12.85;;;11.65;;
12798;SDS011;19250;42.646;26.980;2022-08-21T01:25:41;12.57;;;11.27;;
12798;SDS011;19250;42.646;26.980;2022-08-21T01:28:11;13.50;;;12.10;;
12798;SDS011;19250;42.646;26.980;2022-08-21T01:30:40;12.43;;;11.32;;
12798;SDS011;19250;42.646;26.980;2022-08-21T01:33:09;13.20;;;11.98;;
12798;SDS011;19250;42.646;26.980;2022-08-21T01:35:37;13.23;;;12.02;;
12798;SDS011;19250;42.646;26.980;2022-08-21T01:38:04;12.98;;;11.70;;
12798;SDS011;19250;42.646;26.980;2022-08-21T01:40:33;15.60;;;12.90;;
12798;SDS011;19250;42.646;26.980;2022-08-21T01:43:00;15.35;;;13.13;;
12798;SDS011;19250;42.646;26.980;2022-08-21T01:45:28;15.20;;;13.57;;
12798;SDS011;19250;42.646;26.980;2022-08-21T01:47:56;14.10;;;12.60;;
12798;SDS011;19250;42.646;26.980;2022-08-21T01:50:23;12.70;;;11.40;;
12798;SDS011;19250;42.646;26.980;2022-08-21T01:52:50;13.68;;;12.15;;
12798;SDS011;19250;42.646;26.980;2022-08-21T01:55:18;13.90;;;12.60;;
12798;SDS011;19250;42.646;26.980;2022-08-21T01:57:48;13.60;;;12.20;;
12798;SDS011;19250;42.646;26.980;2022-08-21T02:00:17;12.18;;;11.05;;
12798;SDS011;19250;42.646;26.980;2022-08-21T02:02:47;12.57;;;11.48;;
12798;SDS011;19250;42.646;26.980;2022-08-21T02:05:15;12.07;;;10.88;;
12798;SDS011;19250;42.646;26.980;2022-08-21T02:07:45;12.88;;;11.77;;
12798;SDS011;19250;42.646;26.980;2022-08-21T02:10:15;13.13;;;11.95;;
12798;SDS011;19250;42.646;26.980;2022-08-21T02:12:44;13.13;;;12.00;;
12798;SDS011;19250;42.646;26.980;2022-08-21T02:15:13;13.38;;;12.27;;
12798;SDS011;19250;42.646;26.980;2022-08-21T02:17:41;12.90;;;11.77;;
12798;SDS011;19250;42.646;26.980;2022-08-21T02:20:14;14.27;;;12.93;;
12798;SDS011;19250;42.646;26.980;2022-08-21T02:22:43;14.27;;;12.98;;
12798;SDS011;19250;42.646;26.980;2022-08-21T02:25:10;14.73;;;13.32;;
12798;SDS011;19250;42.646;26.980;2022-08-21T02:27:39;15.50;;;14.02;;
12798;SDS011;19250;42.646;26.980;2022-08-21T02:30:08;15.43;;;14.02;;
12798;SDS011;19250;42.646;26.980;2022-08-21T02:32:38;15.27;;;13.77;;
12798;SDS011;19250;42.646;26.980;2022-08-21T02:35:06;14.95;;;13.75;;
12798;SDS011;19250;42.646;26.980;2022-08-21T02:37:34;13.98;;;12.55;;
12798;SDS011;19250;42.646;26.980;2022-08-21T02:40:10;14.13;;;12.93;;
12798;SDS011;19250;42.646;26.980;2022-08-21T02:42:38;14.55;;;13.07;;
12798;SDS011;19250;42.646;26.980;2022-08-21T02:45:06;13.98;;;12.68;;
12798;SDS011;19250;42.646;26.980;2022-08-21T02:47:34;13.38;;;12.07;;
12798;SDS011;19250;42.646;26.980;2022-08-21T02:50:03;13.50;;;12.30;;
12798;SDS011;19250;42.646;26.980;2022-08-21T02:52:31;13.80;;;12.50;;
12798;SDS011;19250;42.646;26.980;2022-08-21T02:54:58;13.93;;;12.60;;
12798;SDS011;19250;42.646;26.980;2022-08-21T02:57:25;14.30;;;13.00;;
12798;SDS011;19250;42.646;26.980;2022-08-21T02:59:53;13.70;;;12.50;;
12798;SDS011;19250;42.646;26.980;2022-08-21T03:02:20;15.23;;;13.73;;
12798;SDS011;19250;42.646;26.980;2022-08-21T03:04:47;14.67;;;13.27;;
12798;SDS011;19250;42.646;26.980;2022-08-21T03:07:16;15.48;;;14.05;;
12798;SDS011;19250;42.646;26.980;2022-08-21T03:09:43;15.18;;;13.77;;
12798;SDS011;19250;42.646;26.980;2022-08-21T03:12:11;14.98;;;13.40;;
12798;SDS011;19250;42.646;26.980;2022-08-21T03:14:38;14.82;;;13.35;;
12798;SDS011;19250;42.646;26.980;2022-08-21T03:17:05;14.67;;;13.43;;
12798;SDS011;19250;42.646;26.980;2022-08-21T03:19:32;15.00;;;13.60;;
12798;SDS011;19250;42.646;26.980;2022-08-21T03:22:00;15.23;;;13.73;;
12798;SDS011;19250;42.646;26.980;2022-08-21T03:24:28;15.90;;;14.30;;
12798;SDS011;19250;42.646;26.980;2022-08-21T03:26:56;16.50;;;14.80;;
12798;SDS011;19250;42.646;26.980;2022-08-21T03:29:23;19.03;;;15.77;;
12798;SDS011;19250;42.646;26.980;2022-08-21T03:31:50;22.03;;;15.53;;
12798;SDS011;19250;42.646;26.980;2022-08-21T03:34:18;19.85;;;15.73;;
12798;SDS011;19250;42.646;26.980;2022-08-21T03:36:46;17.90;;;16.05;;
12798;SDS011;19250;42.646;26.980;2022-08-21T03:39:14;17.50;;;15.70;;
12798;SDS011;19250;42.646;26.980;2022-08-21T03:41:42;17.50;;;15.80;;
12798;SDS011;19250;42.646;26.980;2022-08-21T03:44:10;17.30;;;15.60;;
12798;SDS011;19250;42.646;26.980;2022-08-21T03:46:37;17.05;;;15.25;;
12798;SDS011;19250;42.646;26.980;2022-08-21T03:49:05;16.90;;;15.00;;
12798;SDS011;19250;42.646;26.980;2022-08-21T03:51:33;17.05;;;15.25;;
12798;SDS011;19250;42.646;26.980;2022-08-21T03:54:00;17.05;;;14.38;;
12798;SDS011;19250;42.646;26.980;2022-08-21T03:56:28;15.77;;;14.25;;
12798;SDS011;19250;42.646;26.980;2022-08-21T03:58:57;15.20;;;13.75;;
12798;SDS011;19250;42.646;26.980;2022-08-21T04:01:24;14.10;;;12.80;;
12798;SDS011;19250;42.646;26.980;2022-08-21T04:03:51;13.38;;;12.18;;
12798;SDS011;19250;42.646;26.980;2022-08-21T04:06:19;13.15;;;11.85;;
12798;SDS011;19250;42.646;26.980;2022-08-21T04:08:46;12.15;;;11.02;;
12798;SDS011;19250;42.646;26.980;2022-08-21T04:11:13;11.82;;;10.70;;
12798;SDS011;19250;42.646;26.980;2022-08-21T04:13:41;12.63;;;11.43;;
12798;SDS011;19250;42.646;26.980;2022-08-21T04:16:10;12.90;;;11.10;;
12798;SDS011;19250;42.646;26.980;2022-08-21T04:18:37;11.82;;;10.75;;
12798;SDS011;19250;42.646;26.980;2022-08-21T04:21:05;12.88;;;11.60;;
12798;SDS011;19250;42.646;26.980;2022-08-21T04:23:35;12.07;;;10.98;;
12798;SDS011;19250;42.646;26.980;2022-08-21T04:26:02;12.55;;;11.27;;
12798;SDS011;19250;42.646;26.980;2022-08-21T04:28:31;12.10;;;10.90;;
12798;SDS011;19250;42.646;26.980;2022-08-21T04:30:58;11.50;;;10.30;;
12798;SDS011;19250;42.646;26.980;2022-08-21T04:33:27;12.85;;;10.93;;
12798;SDS011;19250;42.646;26.980;2022-08-21T04:35:54;11.20;;;10.05;;
12798;SDS011;19250;42.646;26.980;2022-08-21T04:38:21;11.45;;;10.40;;
12798;SDS011;19250;42.646;26.980;2022-08-21T04:40:49;13.65;;;10.40;;
12798;SDS011;19250;42.646;26.980;2022-08-21T04:43:17;11.98;;;9.88;;
12798;SDS011;19250;42.646;26.980;2022-08-21T04:45:47;11.30;;;10.30;;
12798;SDS011;19250;42.646;26.980;2022-08-21T04:48:15;13.45;;;12.20;;
12798;SDS011;19250;42.646;26.980;2022-08-21T04:50:47;14.25;;;12.95;;
12798;SDS011;19250;42.646;26.980;2022-08-21T04:53:18;14.05;;;12.85;;
12798;SDS011;19250;42.646;26.980;2022-08-21T04:55:47;13.30;;;12.00;;
12798;SDS011;19250;42.646;26.980;2022-08-21T04:58:17;12.57;;;11.52;;
12798;SDS011;19250;42.646;26.980;2022-08-21T05:00:47;12.60;;;11.60;;
12798;SDS011;19250;42.646;26.980;2022-08-21T05:03:14;12.27;;;11.10;;
12798;SDS011;19250;42.646;26.980;2022-08-21T05:05:44;12.70;;;11.50;;
12798;SDS011;19250;42.646;26.980;2022-08-21T05:08:13;14.13;;;11.65;;
12798;SDS011;19250;42.646;26.980;2022-08-21T05:10:43;12.23;;;11.02;;
12798;SDS011;19250;42.646;26.980;2022-08-21T05:13:11;11.85;;;10.73;;
12798;SDS011;19250;42.646;26.980;2022-08-21T05:15:40;11.45;;;10.35;;
12798;SDS011;19250;42.646;26.980;2022-08-21T05:18:07;11.40;;;10.27;;
12798;SDS011;19250;42.646;26.980;2022-08-21T05:20:35;11.32;;;10.15;;
12798;SDS011;19250;42.646;26.980;2022-08-21T05:23:07;11.07;;;10.00;;
12798;SDS011;19250;42.646;26.980;2022-08-21T05:25:35;11.88;;;10.30;;
12798;SDS011;19250;42.646;26.980;2022-08-21T05:28:03;12.85;;;10.73;;
12798;SDS011;19250;42.646;26.980;2022-08-21T05:30:31;11.77;;;10.65;;
12798;SDS011;19250;42.646;26.980;2022-08-21T05:32:58;11.25;;;10.32;;
12798;SDS011;19250;42.646;26.980;2022-08-21T05:35:27;13.00;;;10.10;;
12798;SDS011;19250;42.646;26.980;2022-08-21T05:37:55;11.80;;;9.87;;
12798;SDS011;19250;42.646;26.980;2022-08-21T05:40:25;11.55;;;9.75;;
12798;SDS011;19250;42.646;26.980;2022-08-21T05:42:53;10.55;;;9.27;;
12798;SDS011;19250;42.646;26.980;2022-08-21T05:45:22;11.30;;;10.20;;
12798;SDS011;19250;42.646;26.980;2022-08-21T05:47:50;10.88;;;9.35;;
12798;SDS011;19250;42.646;26.980;2022-08-21T05:50:17;13.00;;;8.93;;
12798;SDS011;19250;42.646;26.980;2022-08-21T05:52:44;10.20;;;9.17;;
12798;SDS011;19250;42.646;26.980;2022-08-21T05:55:12;10.17;;;9.07;;
12798;SDS011;19250;42.646;26.980;2022-08-21T05:57:41;10.43;;;8.70;;
12798;SDS011;19250;42.646;26.980;2022-08-21T06:00:08;11.05;;;8.98;;
12798;SDS011;19250;42.646;26.980;2022-08-21T06:02:37;12.65;;;9.38;;
12798;SDS011;19250;42.646;26.980;2022-08-21T06:05:04;10.02;;;8.95;;
12798;SDS011;19250;42.646;26.980;2022-08-21T06:07:32;10.10;;;8.67;;
12798;SDS011;19250;42.646;26.980;2022-08-21T06:09:59;9.00;;;8.13;;
12798;SDS011;19250;42.646;26.980;2022-08-21T06:12:27;9.90;;;8.90;;
12798;SDS011;19250;42.646;26.980;2022-08-21T06:14:55;11.25;;;9.18;;
12798;SDS011;19250;42.646;26.980;2022-08-21T06:17:23;10.13;;;8.70;;
12798;SDS011;19250;42.646;26.980;2022-08-21T06:19:50;11.40;;;8.25;;
12798;SDS011;19250;42.646;26.980;2022-08-21T06:22:18;10.53;;;8.13;;
12798;SDS011;19250;42.646;26.980;2022-08-21T06:24:45;11.03;;;8.87;;
12798;SDS011;19250;42.646;26.980;2022-08-21T06:27:12;16.92;;;11.40;;
12798;SDS011;19250;42.646;26.980;2022-08-21T06:29:40;11.73;;;8.75;;
12798;SDS011;19250;42.646;26.980;2022-08-21T06:32:09;12.35;;;8.20;;
12798;SDS011;19250;42.646;26.980;2022-08-21T06:34:38;10.95;;;8.38;;
12798;SDS011;19250;42.646;26.980;2022-08-21T06:37:06;9.73;;;8.73;;
12798;SDS011;19250;42.646;26.980;2022-08-21T06:39:34;10.48;;;8.95;;
12798;SDS011;19250;42.646;26.980;2022-08-21T06:42:02;14.38;;;9.98;;
12798;SDS011;19250;42.646;26.980;2022-08-21T06:44:29;12.05;;;9.38;;
12798;SDS011;19250;42.646;26.980;2022-08-21T06:46:57;12.88;;;8.90;;
12798;SDS011;19250;42.646;26.980;2022-08-21T06:49:26;10.00;;;8.90;;
12798;SDS011;19250;42.646;26.980;2022-08-21T06:51:53;12.05;;;8.35;;
12798;SDS011;19250;42.646;26.980;2022-08-21T06:54:20;17.08;;;8.70;;
12798;SDS011;19250;42.646;26.980;2022-08-21T06:56:48;13.07;;;8.40;;
12798;SDS011;19250;42.646;26.980;2022-08-21T06:59:15;14.82;;;9.55;;
12798;SDS011;19250;42.646;26.980;2022-08-21T07:01:42;8.77;;;7.72;;
12798;SDS011;19250;42.646;26.980;2022-08-21T07:04:10;12.20;;;8.33;;
12798;SDS011;19250;42.646;26.980;2022-08-21T07:06:39;9.40;;;8.13;;
12798;SDS011;19250;42.646;26.980;2022-08-21T07:09:06;8.30;;;7.50;;
12798;SDS011;19250;42.646;26.980;2022-08-21T07:11:35;10.15;;;7.60;;
12798;SDS011;19250;42.646;26.980;2022-08-21T07:14:03;8.55;;;7.75;;
12798;SDS011;19250;42.646;26.980;2022-08-21T07:16:30;11.77;;;7.83;;
12798;SDS011;19250;42.646;26.980;2022-08-21T07:18:58;8.27;;;7.45;;
12798;SDS011;19250;42.646;26.980;2022-08-21T07:21:25;8.70;;;7.40;;
12798;SDS011;19250;42.646;26.980;2022-08-21T07:23:54;8.15;;;7.35;;
12798;SDS011;19250;42.646;26.980;2022-08-21T07:26:22;7.53;;;6.90;;
12798;SDS011;19250;42.646;26.980;2022-08-21T07:28:51;7.80;;;7.10;;
12798;SDS011;19250;42.646;26.980;2022-08-21T07:31:21;7.83;;;7.17;;
12798;SDS011;19250;42.646;26.980;2022-08-21T07:33:51;8.47;;;7.67;;
12798;SDS011;19250;42.646;26.980;2022-08-21T07:36:21;8.98;;;7.05;;
12798;SDS011;19250;42.646;26.980;2022-08-21T07:38:48;8.43;;;7.63;;
12798;SDS011;19250;42.646;26.980;2022-08-21T07:41:18;7.80;;;7.10;;
12798;SDS011;19250;42.646;26.980;2022-08-21T07:43:48;8.60;;;7.75;;
12798;SDS011;19250;42.646;26.980;2022-08-21T07:46:15;10.35;;;7.32;;
12798;SDS011;19250;42.646;26.980;2022-08-21T07:48:43;7.80;;;7.10;;
12798;SDS011;19250;42.646;26.980;2022-08-21T07:51:12;8.20;;;7.37;;
12798;SDS011;19250;42.646;26.980;2022-08-21T07:53:40;8.35;;;7.65;;
12798;SDS011;19250;42.646;26.980;2022-08-21T07:56:08;8.93;;;7.53;;
12798;SDS011;19250;42.646;26.980;2022-08-21T07:58:37;8.57;;;7.07;;
12798;SDS011;19250;42.646;26.980;2022-08-21T08:01:05;7.90;;;7.15;;
12798;SDS011;19250;42.646;26.980;2022-08-21T08:03:32;8.00;;;7.20;;
12798;SDS011;19250;42.646;26.980;2022-08-21T08:06:00;8.15;;;7.15;;
12798;SDS011;19250;42.646;26.980;2022-08-21T08:08:29;7.95;;;7.25;;
12798;SDS011;19250;42.646;26.980;2022-08-21T08:10:57;8.18;;;7.38;;
12798;SDS011;19250;42.646;26.980;2022-08-21T08:13:25;8.67;;;7.23;;
12798;SDS011;19250;42.646;26.980;2022-08-21T08:15:54;9.10;;;7.33;;
12798;SDS011;19250;42.646;26.980;2022-08-21T08:18:21;8.77;;;7.72;;
12798;SDS011;19250;42.646;26.980;2022-08-21T08:20:48;8.07;;;7.20;;
12798;SDS011;19250;42.646;26.980;2022-08-21T08:23:16;8.13;;;7.32;;
12798;SDS011;19250;42.646;26.980;2022-08-21T08:25:43;8.20;;;7.40;;
12798;SDS011;19250;42.646;26.980;2022-08-21T08:28:10;8.17;;;7.37;;
12798;SDS011;19250;42.646;26.980;2022-08-21T08:30:38;8.20;;;7.47;;
12798;SDS011;19250;42.646;26.980;2022-08-21T08:33:06;8.85;;;7.20;;
12798;SDS011;19250;42.646;26.980;2022-08-21T08:35:34;8.38;;;7.57;;
12798;SDS011;19250;42.646;26.980;2022-08-21T08:38:01;9.57;;;7.60;;
12798;SDS011;19250;42.646;26.980;2022-08-21T08:40:32;8.10;;;7.30;;
12798;SDS011;19250;42.646;26.980;2022-08-21T08:43:05;8.00;;;7.30;;
12798;SDS011;19250;42.646;26.980;2022-08-21T08:45:34;9.82;;;7.63;;
12798;SDS011;19250;42.646;26.980;2022-08-21T08:48:05;8.90;;;7.40;;
12798;SDS011;19250;42.646;26.980;2022-08-21T08:50:39;8.65;;;6.85;;
12798;SDS011;19250;42.646;26.980;2022-08-21T08:53:12;8.00;;;7.20;;
12798;SDS011;19250;42.646;26.980;2022-08-21T08:55:44;8.15;;;7.35;;
12798;SDS011;19250;42.646;26.980;2022-08-21T08:58:20;8.18;;;7.30;;
12798;SDS011;19250;42.646;26.980;2022-08-21T09:00:51;8.82;;;7.05;;
12798;SDS011;19250;42.646;26.980;2022-08-21T09:03:21;9.20;;;7.38;;
12798;SDS011;19250;42.646;26.980;2022-08-21T09:05:52;8.20;;;7.40;;
12798;SDS011;19250;42.646;26.980;2022-08-21T09:08:30;7.93;;;7.18;;
12798;SDS011;19250;42.646;26.980;2022-08-21T09:11:15;7.85;;;7.05;;
12798;SDS011;19250;42.646;26.980;2022-08-21T09:13:55;8.30;;;7.47;;
12798;SDS011;19250;42.646;26.980;2022-08-21T09:16:33;8.00;;;7.30;;
12798;SDS011;19250;42.646;26.980;2022-08-21T09:19:17;8.10;;;7.40;;
12798;SDS011;19250;42.646;26.980;2022-08-21T09:21:57;9.17;;;7.40;;
12798;SDS011;19250;42.646;26.980;2022-08-21T09:24:31;11.53;;;7.67;;
12798;SDS011;19250;42.646;26.980;2022-08-21T09:27:06;7.82;;;7.13;;
12798;SDS011;19250;42.646;26.980;2022-08-21T09:29:37;9.45;;;7.18;;
12798;SDS011;19250;42.646;26.980;2022-08-21T09:32:09;9.23;;;7.37;;
12798;SDS011;19250;42.646;26.980;2022-08-21T09:34:53;8.93;;;6.80;;
12798;SDS011;19250;42.646;26.980;2022-08-21T09:37:22;7.80;;;6.68;;
12798;SDS011;19250;42.646;26.980;2022-08-21T09:39:50;7.93;;;6.93;;
12798;SDS011;19250;42.646;26.980;2022-08-21T09:42:22;8.90;;;6.63;;
12798;SDS011;19250;42.646;26.980;2022-08-21T09:45:04;8.10;;;6.40;;
12798;SDS011;19250;42.646;26.980;2022-08-21T09:47:34;8.00;;;6.50;;
12798;SDS011;19250;42.646;26.980;2022-08-21T09:50:11;7.78;;;6.50;;
12798;SDS011;19250;42.646;26.980;2022-08-21T09:52:44;7.20;;;6.32;;
12798;SDS011;19250;42.646;26.980;2022-08-21T09:55:18;6.88;;;6.18;;
12798;SDS011;19250;42.646;26.980;2022-08-21T09:58:04;6.87;;;6.23;;
12798;SDS011;19250;42.646;26.980;2022-08-21T10:00:33;7.35;;;6.18;;
12798;SDS011;19250;42.646;26.980;2022-08-21T10:03:12;7.70;;;6.90;;
12798;SDS011;19250;42.646;26.980;2022-08-21T10:05:55;9.02;;;6.50;;
12798;SDS011;19250;42.646;26.980;2022-08-21T10:08:25;7.70;;;6.35;;
12798;SDS011;19250;42.646;26.980;2022-08-21T10:10:54;7.50;;;6.10;;
12798;SDS011;19250;42.646;26.980;2022-08-21T10:13:30;6.85;;;5.90;;
12798;SDS011;19250;42.646;26.980;2022-08-21T10:16:09;7.20;;;6.45;;
12798;SDS011;19250;42.646;26.980;2022-08-21T10:18:46;7.68;;;6.88;;
12798;SDS011;19250;42.646;26.980;2022-08-21T10:21:26;8.77;;;6.57;;
12798;SDS011;19250;42.646;26.980;2022-08-21T10:24:00;7.70;;;6.20;;
12798;SDS011;19250;42.646;26.980;2022-08-21T10:26:38;6.85;;;6.25;;
12798;SDS011;19250;42.646;26.980;2022-08-21T10:29:18;7.25;;;6.55;;
12798;SDS011;19250;42.646;26.980;2022-08-21T10:32:01;7.82;;;6.72;;
12798;SDS011;19250;42.646;26.980;2022-08-21T10:34:37;7.63;;;7.00;;
12798;SDS011;19250;42.646;26.980;2022-08-21T10:37:15;7.97;;;6.75;;
12798;SDS011;19250;42.646;26.980;2022-08-21T10:39:48;7.57;;;6.88;;
12798;SDS011;19250;42.646;26.980;2022-08-21T10:42:28;8.68;;;7.75;;
12798;SDS011;19250;42.646;26.980;2022-08-21T10:45:14;7.45;;;6.55;;
12798;SDS011;19250;42.646;26.980;2022-08-21T10:47:48;7.47;;;6.80;;
12798;SDS011;19250;42.646;26.980;2022-08-21T10:50:23;8.60;;;7.63;;
12798;SDS011;19250;42.646;26.980;2022-08-21T10:53:05;9.33;;;8.43;;
12798;SDS011;19250;42.646;26.980;2022-08-21T10:55:43;11.05;;;10.05;;
12798;SDS011;19250;42.646;26.980;2022-08-21T10:58:19;10.63;;;9.73;;
12798;SDS011;19250;42.646;26.980;2022-08-21T11:00:53;10.50;;;9.53;;
12798;SDS011;19250;42.646;26.980;2022-08-21T11:03:27;10.80;;;9.90;;
12798;SDS011;19250;42.646;26.980;2022-08-21T11:06:02;12.70;;;11.60;;
12798;SDS011;19250;42.646;26.980;2022-08-21T11:08:38;12.35;;;11.30;;
12798;SDS011;19250;42.646;26.980;2022-08-21T11:11:08;12.33;;;11.30;;
12798;SDS011;19250;42.646;26.980;2022-08-21T11:13:40;13.32;;;12.18;;
12798;SDS011;19250;42.646;26.980;2022-08-21T11:16:14;12.65;;;11.65;;
12798;SDS011;19250;42.646;26.980;2022-08-21T11:18:49;11.17;;;10.17;;
12798;SDS011;19250;42.646;26.980;2022-08-21T11:21:28;10.32;;;9.32;;
12798;SDS011;19250;42.646;26.980;2022-08-21T11:24:08;11.05;;;9.95;;
12798;SDS011;19250;42.646;26.980;2022-08-21T11:26:44;9.85;;;8.95;;
12798;SDS011;19250;42.646;26.980;2022-08-21T11:29:19;10.98;;;9.93;;
12798;SDS011;19250;42.646;26.980;2022-08-21T11:32:01;10.32;;;9.38;;
12798;SDS011;19250;42.646;26.980;2022-08-21T11:34:42;10.52;;;9.52;;
12798;SDS011;19250;42.646;26.980;2022-08-21T11:37:24;11.48;;;10.48;;
12798;SDS011;19250;42.646;26.980;2022-08-21T11:40:03;10.05;;;9.13;;
12798;SDS011;19250;42.646;26.980;2022-08-21T11:42:38;10.75;;;9.73;;
12798;SDS011;19250;42.646;26.980;2022-08-21T11:45:14;9.90;;;9.00;;
12798;SDS011;19250;42.646;26.980;2022-08-21T11:47:51;9.63;;;8.68;;
12798;SDS011;19250;42.646;26.980;2022-08-21T11:50:26;9.35;;;8.32;;
12798;SDS011;19250;42.646;26.980;2022-08-21T11:52:56;8.35;;;7.50;;
12798;SDS011;19250;42.646;26.980;2022-08-21T11:55:32;8.57;;;7.78;;
12798;SDS011;19250;42.646;26.980;2022-08-21T11:58:05;8.80;;;8.10;;
12798;SDS011;19250;42.646;26.980;2022-08-21T12:00:36;10.13;;;9.30;;
12798;SDS011;19250;42.646;26.980;2022-08-21T12:03:09;9.45;;;8.55;;
12798;SDS011;19250;42.646;26.980;2022-08-21T12:05:40;8.43;;;7.45;;
12798;SDS011;19250;42.646;26.980;2022-08-21T12:08:12;8.43;;;7.68;;
12798;SDS011;19250;42.646;26.980;2022-08-21T12:10:46;9.23;;;8.27;;
12798;SDS011;19250;42.646;26.980;2022-08-21T12:13:28;9.52;;;8.32;;
12798;SDS011;19250;42.646;26.980;2022-08-21T12:16:04;9.40;;;8.50;;
12798;SDS011;19250;42.646;26.980;2022-08-21T12:18:33;8.68;;;7.60;;
12798;SDS011;19250;42.646;26.980;2022-08-21T12:21:16;9.00;;;7.90;;
12798;SDS011;19250;42.646;26.980;2022-08-21T12:23:48;9.48;;;7.93;;
12798;SDS011;19250;42.646;26.980;2022-08-21T12:26:31;7.95;;;7.20;;
12798;SDS011;19250;42.646;26.980;2022-08-21T12:29:14;9.02;;;6.90;;
12798;SDS011;19250;42.646;26.980;2022-08-21T12:31:49;7.80;;;7.10;;
12798;SDS011;19250;42.646;26.980;2022-08-21T12:34:22;6.97;;;6.25;;
12798;SDS011;19250;42.646;26.980;2022-08-21T12:36:53;7.53;;;6.73;;
12798;SDS011;19250;42.646;26.980;2022-08-21T12:39:25;7.40;;;6.70;;
12798;SDS011;19250;42.646;26.980;2022-08-21T12:41:57;7.85;;;7.05;;
12798;SDS011;19250;42.646;26.980;2022-08-21T12:44:28;7.85;;;7.15;;
12798;SDS011;19250;42.646;26.980;2022-08-21T12:47:03;7.90;;;7.10;;
12798;SDS011;19250;42.646;26.980;2022-08-21T12:49:34;8.27;;;7.20;;
12798;SDS011;19250;42.646;26.980;2022-08-21T12:52:05;8.05;;;6.93;;
12798;SDS011;19250;42.646;26.980;2022-08-21T12:54:39;7.28;;;6.57;;
12798;SDS011;19250;42.646;26.980;2022-08-21T12:57:17;6.88;;;6.30;;
12798;SDS011;19250;42.646;26.980;2022-08-21T12:59:50;7.35;;;6.63;;
12798;SDS011;19250;42.646;26.980;2022-08-21T13:02:20;7.40;;;6.70;;
12798;SDS011;19250;42.646;26.980;2022-08-21T13:04:51;7.47;;;6.75;;
12798;SDS011;19250;42.646;26.980;2022-08-21T13:07:24;8.52;;;6.55;;
12798;SDS011;19250;42.646;26.980;2022-08-21T13:09:55;8.38;;;7.47;;
12798;SDS011;19250;42.646;26.980;2022-08-21T13:12:26;8.10;;;6.50;;
12798;SDS011;19250;42.646;26.980;2022-08-21T13:14:56;7.35;;;6.55;;
12798;SDS011;19250;42.646;26.980;2022-08-21T13:17:25;7.40;;;6.70;;
12798;SDS011;19250;42.646;26.980;2022-08-21T13:19:57;7.17;;;6.50;;
12798;SDS011;19250;42.646;26.980;2022-08-21T13:22:26;8.00;;;6.90;;
12798;SDS011;19250;42.646;26.980;2022-08-21T13:24:54;8.05;;;6.93;;
12798;SDS011;19250;42.646;26.980;2022-08-21T13:27:23;9.55;;;6.60;;
12798;SDS011;19250;42.646;26.980;2022-08-21T13:30:00;7.72;;;7.03;;
12798;SDS011;19250;42.646;26.980;2022-08-21T13:32:33;9.53;;;7.20;;
12798;SDS011;19250;42.646;26.980;2022-08-21T13:35:09;11.30;;;7.07;;
12798;SDS011;19250;42.646;26.980;2022-08-21T13:37:38;8.68;;;7.30;;
12798;SDS011;19250;42.646;26.980;2022-08-21T13:40:07;8.55;;;6.88;;
12798;SDS011;19250;42.646;26.980;2022-08-21T13:42:42;7.28;;;6.50;;
12798;SDS011;19250;42.646;26.980;2022-08-21T13:45:13;8.73;;;7.00;;
12798;SDS011;19250;42.646;26.980;2022-08-21T13:47:42;8.73;;;6.95;;
12798;SDS011;19250;42.646;26.980;2022-08-21T13:50:13;7.15;;;6.38;;
12798;SDS011;19250;42.646;26.980;2022-08-21T13:52:49;7.20;;;6.50;;
12798;SDS011;19250;42.646;26.980;2022-08-21T13:55:22;8.02;;;6.35;;
12798;SDS011;19250;42.646;26.980;2022-08-21T13:58:00;8.05;;;7.00;;
12798;SDS011;19250;42.646;26.980;2022-08-21T14:00:28;9.13;;;6.97;;
12798;SDS011;19250;42.646;26.980;2022-08-21T14:03:02;8.00;;;7.10;;
12798;SDS011;19250;42.646;26.980;2022-08-21T14:05:33;8.77;;;7.70;;
12798;SDS011;19250;42.646;26.980;2022-08-21T14:08:05;7.82;;;7.07;;
12798;SDS011;19250;42.646;26.980;2022-08-21T14:10:35;8.00;;;7.22;;
12798;SDS011;19250;42.646;26.980;2022-08-21T14:13:26;8.35;;;7.50;;
12798;SDS011;19250;42.646;26.980;2022-08-21T14:15:59;9.05;;;7.85;;
12798;SDS011;19250;42.646;26.980;2022-08-21T14:18:29;10.20;;;7.60;;
12798;SDS011;19250;42.646;26.980;2022-08-21T14:21:06;12.32;;;8.48;;
12798;SDS011;19250;42.646;26.980;2022-08-21T14:23:34;12.77;;;8.68;;
12798;SDS011;19250;42.646;26.980;2022-08-21T14:26:03;9.95;;;9.05;;
12798;SDS011;19250;42.646;26.980;2022-08-21T14:28:34;12.02;;;8.35;;
12798;SDS011;19250;42.646;26.980;2022-08-21T14:31:13;10.70;;;8.10;;
12798;SDS011;19250;42.646;26.980;2022-08-21T14:33:42;9.13;;;8.20;;
12798;SDS011;19250;42.646;26.980;2022-08-21T14:36:10;8.85;;;7.95;;
12798;SDS011;19250;42.646;26.980;2022-08-21T14:38:38;8.80;;;7.55;;
12798;SDS011;19250;42.646;26.980;2022-08-21T14:41:09;9.68;;;7.90;;